Time;durP1;ratioP1;P1;durP2;ratioP2;P2;SDS_P1;SDS_P2;PMS_P1;PMS_P2;Temp;Humidity;BMP_temperature;BMP_pressure;BME280_temperature;BME280_humidity;BME280_pressure;Samples;Min_cycle;Max_cycle;Signal;HPM_P1;HPM_P2
2022/07/10 00:00:10;;;;;;;5.10;4.70;;;18.40;99.90;;;;;;5030451;28;20239;-79
2022/07/10 00:02:41;;;;;;;6.17;5.77;;;18.40;99.90;;;;;;5031815;28;20707;-79
2022/07/10 00:05:09;;;;;;;3.30;3.00;;;18.30;99.90;;;;;;5032495;28;20193;-77
2022/07/10 00:07:36;;;;;;;3.57;3.27;;;18.30;99.90;;;;;;5028218;28;20611;-78
2022/07/10 00:10:04;;;;;;;3.50;3.20;;;18.30;99.90;;;;;;5032137;28;20210;-77
2022/07/10 00:12:32;;;;;;;4.60;3.20;;;18.20;99.90;;;;;;5015083;28;20606;-79
2022/07/10 00:14:59;;;;;;;5.83;5.43;;;18.20;99.90;;;;;;5031969;28;20771;-79
2022/07/10 00:17:27;;;;;;;3.50;3.20;;;18.10;99.90;;;;;;5025441;28;20642;-79
2022/07/10 00:19:54;;;;;;;3.57;3.27;;;18.10;99.90;;;;;;5028005;28;20292;-79
2022/07/10 00:22:21;;;;;;;3.43;3.13;;;18.00;99.90;;;;;;5020942;28;20200;-77
2022/07/10 00:24:50;;;;;;;3.50;3.20;;;18.00;99.90;;;;;;5028827;28;20258;-78
2022/07/10 00:27:17;;;;;;;5.73;5.23;;;18.00;99.90;;;;;;5028311;28;20284;-79
2022/07/10 00:29:45;;;;;;;5.23;4.20;;;18.00;99.90;;;;;;5029752;28;20200;-77
2022/07/10 00:32:12;;;;;;;4.27;3.87;;;18.00;99.90;;;;;;5023682;28;20251;-77
2022/07/10 00:34:39;;;;;;;5.47;3.73;;;18.00;99.90;;;;;;5024168;28;20216;-79
2022/07/10 00:37:06;;;;;;;4.17;3.40;;;18.10;99.90;;;;;;5031772;28;20201;-78
2022/07/10 00:39:32;;;;;;;4.00;3.60;;;18.00;99.90;;;;;;5032694;28;20263;-77
2022/07/10 00:42:07;;;;;;;3.87;3.47;;;18.10;99.90;;;;;;5029787;28;20262;-79
2022/07/10 00:44:34;;;;;;;4.13;3.73;;;18.10;99.90;;;;;;5035643;28;20290;-77
2022/07/10 00:47:02;;;;;;;4.77;3.90;;;18.00;99.90;;;;;;5028744;28;20209;-77
2022/07/10 00:49:29;;;;;;;4.80;4.13;;;18.10;99.90;;;;;;5023043;28;20197;-77
2022/07/10 00:51:57;;;;;;;4.07;3.47;;;18.00;99.90;;;;;;5030272;28;20188;-77
2022/07/10 00:54:24;;;;;;;4.27;3.83;;;18.00;99.90;;;;;;5025088;28;20228;-77
2022/07/10 00:56:51;;;;;;;4.37;3.60;;;18.00;99.90;;;;;;5029167;28;20197;-77
2022/07/10 00:59:19;;;;;;;6.33;5.83;;;18.00;99.90;;;;;;5031968;28;20242;-77
2022/07/10 01:01:46;;;;;;;4.83;4.23;;;18.00;99.90;;;;;;5028506;28;20608;-77
2022/07/10 01:04:14;;;;;;;4.30;3.90;;;17.90;99.90;;;;;;5028721;28;20216;-77
2022/07/10 01:06:41;;;;;;;3.80;3.50;;;17.90;99.90;;;;;;5031082;28;20286;-77
2022/07/10 01:09:08;;;;;;;4.47;3.70;;;17.90;99.90;;;;;;5032617;28;20188;-77
2022/07/10 01:11:37;;;;;;;4.20;3.40;;;17.90;99.90;;;;;;5034655;28;20212;-77
2022/07/10 01:14:04;;;;;;;5.27;4.00;;;17.90;99.90;;;;;;5027480;28;20235;-77
2022/07/10 01:16:31;;;;;;;5.17;4.43;;;17.80;99.90;;;;;;5034130;28;20228;-77
2022/07/10 01:18:59;;;;;;;6.13;5.63;;;17.70;99.90;;;;;;5024351;28;20200;-77
2022/07/10 01:21:28;;;;;;;7.50;6.80;;;17.60;99.90;;;;;;5035980;28;20188;-77
2022/07/10 01:23:55;;;;;;;8.83;8.03;;;17.60;99.90;;;;;;5034486;28;20234;-77
2022/07/10 01:26:23;;;;;;;7.63;7.03;;;17.50;99.90;;;;;;5034620;28;20223;-76
2022/07/10 01:28:51;;;;;;;7.10;6.50;;;17.50;99.90;;;;;;5034547;28;20196;-77
2022/07/10 01:31:18;;;;;;;7.57;6.00;;;17.50;99.90;;;;;;5035709;28;20250;-77
2022/07/10 01:33:45;;;;;;;5.90;5.30;;;17.50;99.90;;;;;;5029510;28;20244;-77
2022/07/10 01:36:13;;;;;;;5.80;5.30;;;17.40;99.90;;;;;;5033004;28;20218;-77
2022/07/10 01:38:41;;;;;;;5.93;5.43;;;17.40;99.90;;;;;;5029788;28;20208;-77
2022/07/10 01:41:08;;;;;;;5.70;5.03;;;17.30;99.90;;;;;;5026914;28;20251;-77
2022/07/10 01:43:36;;;;;;;5.57;5.07;;;17.30;99.90;;;;;;5035181;28;20247;-77
2022/07/10 01:46:03;;;;;;;5.77;5.00;;;17.30;99.90;;;;;;5032745;28;20227;-77
2022/07/10 01:48:30;;;;;;;5.53;5.03;;;17.30;99.90;;;;;;5035059;28;20200;-77
2022/07/10 01:50:57;;;;;;;5.83;5.00;;;17.30;99.90;;;;;;5033684;28;20254;-77
2022/07/10 01:53:24;;;;;;;4.87;4.40;;;17.20;99.90;;;;;;5015399;28;20215;-77
2022/07/10 01:55:52;;;;;;;4.80;4.40;;;17.20;99.90;;;;;;5033455;28;20547;-77
2022/07/10 01:58:19;;;;;;;4.53;4.13;;;17.20;99.90;;;;;;5032444;28;20194;-77
2022/07/10 02:00:46;;;;;;;5.30;4.50;;;17.20;99.90;;;;;;5041752;28;20270;-77
2022/07/10 02:05:57;;;;;;;4.83;4.33;;;17.10;99.90;;;;;;5025563;28;20244;-77
2022/07/10 02:08:24;;;;;;;5.00;4.60;;;17.00;99.90;;;;;;5035104;28;20681;-77
2022/07/10 02:10:53;;;;;;;4.97;4.57;;;17.00;99.90;;;;;;5028098;28;20676;-78
2022/07/10 02:13:20;;;;;;;5.30;4.80;;;17.00;99.90;;;;;;5026162;28;20273;-77
2022/07/10 02:15:47;;;;;;;4.73;4.40;;;16.90;99.90;;;;;;5033566;28;20211;-76
2022/07/10 02:18:15;;;;;;;5.07;4.57;;;16.90;99.90;;;;;;5023340;28;20196;-76
2022/07/10 02:20:41;;;;;;;5.10;4.60;;;16.90;99.90;;;;;;5021961;28;20269;-76
2022/07/10 02:23:08;;;;;;;5.27;4.77;;;16.80;99.90;;;;;;5039099;28;20640;-76
2022/07/10 02:25:35;;;;;;;5.13;4.67;;;16.80;99.90;;;;;;5030479;28;20727;-77
2022/07/10 02:28:04;;;;;;;4.93;4.53;;;16.70;99.90;;;;;;5025717;28;20208;-77
2022/07/10 02:30:31;;;;;;;5.60;4.97;;;16.70;99.90;;;;;;5025106;28;20207;-77
2022/07/10 02:32:57;;;;;;;6.47;4.80;;;16.60;99.90;;;;;;5023220;28;20215;-77
2022/07/10 02:35:24;;;;;;;4.90;4.50;;;16.60;99.90;;;;;;5034558;28;20219;-77
2022/07/10 02:37:51;;;;;;;5.20;4.70;;;16.50;99.90;;;;;;5033506;28;20195;-77
2022/07/10 02:40:18;;;;;;;5.50;5.00;;;16.60;99.90;;;;;;5033778;28;20226;-77
2022/07/10 02:42:45;;;;;;;5.30;4.80;;;16.50;99.90;;;;;;5032741;28;20607;-77
2022/07/10 02:45:13;;;;;;;5.73;4.83;;;16.50;99.90;;;;;;5030527;28;20250;-77
2022/07/10 02:47:40;;;;;;;6.10;4.60;;;16.50;99.90;;;;;;5030707;28;20202;-76
2022/07/10 02:50:08;;;;;;;6.03;5.10;;;16.40;99.90;;;;;;5025870;28;20740;-77
2022/07/10 02:52:35;;;;;;;6.13;4.90;;;16.40;99.90;;;;;;5034629;28;20195;-76
2022/07/10 02:55:02;;;;;;;5.67;5.07;;;16.40;99.90;;;;;;5032996;28;20268;-77
2022/07/10 02:57:29;;;;;;;5.00;4.60;;;16.40;99.90;;;;;;5024195;28;20630;-77
2022/07/10 02:59:55;;;;;;;5.10;4.60;;;16.40;99.90;;;;;;5027865;28;20203;-77
2022/07/10 03:02:24;;;;;;;4.70;4.30;;;16.40;99.90;;;;;;5024343;28;20203;-77
2022/07/10 03:04:50;;;;;;;4.77;4.33;;;16.40;99.90;;;;;;5031156;28;20724;-77
2022/07/10 03:07:17;;;;;;;5.33;4.83;;;16.40;99.90;;;;;;5008057;28;20244;-77
2022/07/10 03:09:44;;;;;;;4.90;4.47;;;16.40;99.90;;;;;;5033389;28;20254;-76
2022/07/10 03:12:11;;;;;;;5.20;4.70;;;16.40;99.90;;;;;;5028063;28;20257;-77
2022/07/10 03:14:37;;;;;;;6.20;5.07;;;16.50;99.90;;;;;;5027832;28;20221;-77
2022/07/10 03:17:05;;;;;;;5.00;4.60;;;16.50;99.90;;;;;;5031204;28;20207;-77
2022/07/10 03:19:33;;;;;;;4.90;4.33;;;16.50;99.90;;;;;;5025946;28;20202;-77
2022/07/10 03:22:00;;;;;;;7.67;4.83;;;16.50;99.90;;;;;;5025189;28;20254;-77
2022/07/10 03:24:26;;;;;;;6.93;5.60;;;16.50;99.90;;;;;;5024999;28;20699;-77
2022/07/10 03:26:53;;;;;;;6.37;5.43;;;16.50;99.90;;;;;;5023116;28;20200;-77
2022/07/10 03:29:20;;;;;;;5.77;5.27;;;16.50;99.90;;;;;;5023617;28;20204;-77
2022/07/10 03:31:47;;;;;;;5.77;5.27;;;16.40;99.90;;;;;;5024317;28;20203;-77
2022/07/10 03:34:14;;;;;;;6.90;5.57;;;16.50;99.90;;;;;;5030326;28;20573;-77
2022/07/10 03:36:42;;;;;;;5.50;4.60;;;16.50;99.90;;;;;;5022681;28;20204;-77
2022/07/10 03:39:09;;;;;;;6.57;5.57;;;16.50;99.90;;;;;;5027991;28;20258;-76
2022/07/10 03:41:36;;;;;;;6.90;5.93;;;16.50;99.90;;;;;;5027995;28;20213;-77
2022/07/10 03:44:03;;;;;;;7.73;6.97;;;16.50;99.90;;;;;;5032239;28;20231;-77
2022/07/10 03:46:30;;;;;;;9.03;6.93;;;16.50;99.90;;;;;;5029433;28;20270;-77
2022/07/10 03:48:57;;;;;;;7.13;6.43;;;16.50;99.90;;;;;;5015562;28;20196;-78
2022/07/10 03:51:34;;;;;;;8.23;7.10;;;16.50;99.90;;;;;;5042107;28;20196;-79
2022/07/10 03:54:02;;;;;;;8.00;7.20;;;16.50;99.90;;;;;;5039578;28;20241;-79
2022/07/10 03:59:13;;;;;;;10.87;8.63;;;16.60;99.90;;;;;;5023975;28;20199;-78
2022/07/10 04:01:40;;;;;;;8.70;7.80;;;16.60;99.90;;;;;;5022889;28;20193;-76
2022/07/10 04:04:07;;;;;;;9.03;8.13;;;16.50;99.90;;;;;;5023154;28;20766;-76
2022/07/10 04:06:33;;;;;;;7.73;6.93;;;16.50;99.90;;;;;;5025110;28;20579;-77
2022/07/10 04:09:01;;;;;;;7.70;6.83;;;16.60;99.90;;;;;;5030069;28;20199;-77
2022/07/10 04:11:28;;;;;;;10.50;8.03;;;16.60;99.90;;;;;;5008519;28;20589;-77
2022/07/10 04:13:55;;;;;;;8.60;7.37;;;16.60;99.90;;;;;;5020590;28;20212;-76
2022/07/10 04:16:22;;;;;;;6.83;6.17;;;16.70;99.90;;;;;;5016478;28;20233;-76
2022/07/10 04:18:49;;;;;;;7.10;6.20;;;16.80;99.90;;;;;;5024996;28;20198;-76
2022/07/10 04:21:16;;;;;;;8.93;6.83;;;16.70;99.90;;;;;;5030177;28;20195;-76
2022/07/10 04:23:43;;;;;;;7.87;7.17;;;16.80;99.90;;;;;;5003295;28;20223;-76
2022/07/10 04:26:11;;;;;;;7.60;6.87;;;16.80;99.90;;;;;;5025327;28;20204;-76
2022/07/10 04:28:38;;;;;;;6.83;6.13;;;16.90;99.90;;;;;;5023534;28;20196;-81
2022/07/10 04:31:05;;;;;;;7.23;6.53;;;17.00;99.90;;;;;;5013258;28;20207;-81
2022/07/10 04:33:31;;;;;;;8.30;6.90;;;17.20;99.90;;;;;;5031009;28;20547;-81
2022/07/10 04:35:58;;;;;;;7.83;6.60;;;17.30;99.90;;;;;;5021994;28;20210;-82
2022/07/10 04:38:25;;;;;;;6.83;6.13;;;17.40;99.90;;;;;;5032118;28;20233;-81
2022/07/10 04:40:52;;;;;;;6.50;5.77;;;17.60;99.90;;;;;;5013431;28;20199;-81
2022/07/10 04:43:20;;;;;;;6.63;6.03;;;17.80;99.90;;;;;;5045480;28;20276;-81
2022/07/10 04:45:47;;;;;;;8.27;7.47;;;18.00;99.90;;;;;;5044997;28;20237;-81
2022/07/10 04:48:14;;;;;;;8.27;7.57;;;18.00;99.90;;;;;;5034469;28;20565;-82
2022/07/10 04:50:41;;;;;;;9.30;8.40;;;18.00;99.90;;;;;;5050266;28;20202;-82
2022/07/10 04:53:08;;;;;;;9.53;8.73;;;18.10;99.90;;;;;;5032800;28;20234;-81
2022/07/10 04:55:35;;;;;;;8.87;8.07;;;18.10;99.90;;;;;;5031919;28;20207;-81
2022/07/10 04:58:01;;;;;;;9.63;8.83;;;18.10;99.90;;;;;;5035677;28;20202;-81
2022/07/10 05:00:30;;;;;;;9.30;8.53;;;18.30;99.90;;;;;;5020926;28;20200;-80
2022/07/10 05:02:56;;;;;;;9.87;8.97;;;18.30;99.90;;;;;;5027420;28;20710;-79
2022/07/10 05:05:24;;;;;;;10.00;9.20;;;18.50;99.90;;;;;;5020401;28;20193;-82
2022/07/10 05:07:50;;;;;;;9.20;8.30;;;18.70;99.90;;;;;;5019969;28;20200;-81
2022/07/10 05:10:17;;;;;;;9.73;8.83;;;19.00;99.90;;;;;;5018258;28;20755;-79
2022/07/10 05:12:44;;;;;;;10.00;9.17;;;19.00;99.90;;;;;;5014861;28;20231;-82
2022/07/10 05:15:11;;;;;;;9.40;8.70;;;19.10;99.90;;;;;;5027864;28;20241;-83
2022/07/10 05:17:39;;;;;;;5.53;4.40;;;19.10;99.90;;;;;;5040679;28;20260;-79
2022/07/10 05:20:07;;;;;;;5.10;4.60;;;19.10;99.90;;;;;;5033803;28;20193;-77
2022/07/10 05:22:34;;;;;;;8.70;7.83;;;19.00;99.90;;;;;;5023921;28;20225;-75
2022/07/10 05:25:00;;;;;;;8.03;7.43;;;19.00;99.90;;;;;;5006212;28;20214;-76
2022/07/10 05:27:27;;;;;;;8.87;7.90;;;19.10;99.90;;;;;;5022349;28;20711;-77
2022/07/10 05:29:54;;;;;;;8.13;7.53;;;18.90;99.90;;;;;;5029087;28;20194;-77
2022/07/10 05:32:21;;;;;;;8.27;7.47;;;18.90;99.90;;;;;;5028930;28;20202;-77
2022/07/10 05:34:49;;;;;;;7.00;6.30;;;18.70;99.90;;;;;;5025584;28;20797;-77
2022/07/10 05:37:16;;;;;;;8.83;7.93;;;18.40;99.90;;;;;;5014445;28;20201;-76
2022/07/10 05:39:42;;;;;;;7.63;5.13;;;18.30;99.90;;;;;;5028282;28;20260;-77
2022/07/10 05:42:09;;;;;;;6.80;5.00;;;18.10;99.90;;;;;;5026705;28;20252;-77
2022/07/10 05:44:37;;;;;;;5.87;4.83;;;18.00;99.90;;;;;;5021931;28;20225;-76
2022/07/10 05:47:05;;;;;;;5.60;4.83;;;17.90;99.90;;;;;;5008851;28;20204;-77
2022/07/10 05:49:32;;;;;;;8.63;7.40;;;17.90;99.90;;;;;;5010325;28;20232;-76
2022/07/10 05:52:00;;;;;;;6.47;4.97;;;17.80;99.90;;;;;;5025062;28;20732;-77
2022/07/10 05:54:26;;;;;;;4.87;4.13;;;17.70;99.90;;;;;;5022321;28;20639;-77
2022/07/10 05:56:53;;;;;;;6.00;4.10;;;17.70;99.90;;;;;;5029910;28;20658;-76
2022/07/10 05:59:20;;;;;;;5.57;4.30;;;17.80;99.90;;;;;;5027326;28;20192;-77
2022/07/10 06:01:47;;;;;;;7.70;4.10;;;18.00;99.90;;;;;;5028040;28;20201;-76
2022/07/10 06:04:14;;;;;;;4.87;4.03;;;18.40;99.90;;;;;;5033469;28;20224;-77
2022/07/10 06:06:40;;;;;;;4.87;4.00;;;19.10;99.90;;;;;;5010586;28;20626;-76
2022/07/10 06:09:08;;;;;;;6.60;5.60;;;20.00;99.90;;;;;;5032272;28;20211;-77
2022/07/10 06:11:35;;;;;;;6.67;5.00;;;20.70;99.90;;;;;;5025923;28;20796;-77
2022/07/10 06:14:03;;;;;;;5.90;5.40;;;20.40;99.90;;;;;;5023126;28;20219;-77
2022/07/10 06:16:29;;;;;;;5.93;4.97;;;20.50;99.90;;;;;;5033298;28;20635;-77
2022/07/10 06:18:56;;;;;;;4.57;3.80;;;20.60;99.90;;;;;;5027757;28;20204;-76
2022/07/10 06:21:23;;;;;;;5.33;4.70;;;20.70;99.90;;;;;;5024432;28;20239;-77
2022/07/10 06:23:50;;;;;;;5.47;3.80;;;20.70;99.90;;;;;;5028599;28;20239;-77
2022/07/10 06:26:18;;;;;;;4.83;4.43;;;20.10;99.90;;;;;;5008481;28;20665;-77
2022/07/10 06:28:45;;;;;;;3.07;2.77;;;19.60;99.90;;;;;;5025278;28;20227;-77
2022/07/10 06:31:12;;;;;;;4.97;4.20;;;19.30;99.90;;;;;;5024015;28;20572;-78
2022/07/10 06:33:39;;;;;;;4.50;4.10;;;19.00;99.90;;;;;;5025961;28;20213;-77
2022/07/10 06:36:07;;;;;;;7.10;6.50;;;18.90;99.90;;;;;;5012519;28;20225;-76
2022/07/10 06:38:33;;;;;;;4.97;4.57;;;18.70;99.90;;;;;;5010235;28;20209;-77
2022/07/10 06:41:00;;;;;;;3.40;3.10;;;18.80;99.90;;;;;;5023234;28;20188;-77
2022/07/10 06:43:29;;;;;;;5.17;3.47;;;19.50;99.90;;;;;;5027719;28;20221;-77
2022/07/10 06:46:02;;;;;;;7.03;6.33;;;20.40;99.90;;;;;;5031565;28;20258;-77
2022/07/10 06:48:28;;;;;;;4.87;3.23;;;21.20;99.90;;;;;;5024326;28;20200;-76
2022/07/10 06:50:55;;;;;;;6.57;6.00;;;21.80;99.90;;;;;;5010074;28;20237;-77
2022/07/10 06:53:23;;;;;;;6.87;6.17;;;22.50;99.90;;;;;;5028469;28;20219;-77
2022/07/10 06:55:51;;;;;;;5.57;3.70;;;23.00;99.90;;;;;;5023463;28;20217;-77
2022/07/10 06:58:17;;;;;;;7.17;6.47;;;22.70;99.90;;;;;;5031515;28;20192;-77
2022/07/10 07:00:46;;;;;;;6.83;6.20;;;22.00;99.90;;;;;;5021179;28;20630;-76
2022/07/10 07:03:12;;;;;;;6.90;6.30;;;21.40;99.90;;;;;;5025459;28;20716;-76
2022/07/10 07:05:39;;;;;;;6.73;6.23;;;21.20;99.90;;;;;;5021427;28;20189;-76
2022/07/10 07:08:06;;;;;;;6.00;5.60;;;20.70;99.90;;;;;;5013932;28;20273;-77
2022/07/10 07:10:33;;;;;;;6.30;5.80;;;20.70;99.90;;;;;;5023339;28;20292;-76
2022/07/10 07:13:02;;;;;;;4.97;3.37;;;20.60;99.90;;;;;;5023214;28;20274;-77
2022/07/10 07:15:29;;;;;;;2.93;2.10;;;20.70;99.90;;;;;;5026061;28;20258;-76
2022/07/10 07:18:07;;;;;;;6.27;5.77;;;20.50;99.90;;;;;;5030923;28;20216;-77
2022/07/10 07:23:18;;;;;;;3.53;3.23;;;20.40;99.90;;;;;;5020996;28;20212;-77
2022/07/10 07:25:47;;;;;;;2.93;2.50;;;20.40;99.90;;;;;;5022036;28;20197;-77
2022/07/10 07:28:16;;;;;;;4.50;4.10;;;20.30;99.90;;;;;;5020513;28;20211;-77
2022/07/10 07:30:43;;;;;;;5.60;5.20;;;20.60;99.90;;;;;;5027700;28;20249;-77
2022/07/10 07:33:11;;;;;;;5.20;3.50;;;21.40;99.90;;;;;;5006053;28;20219;-77
2022/07/10 07:35:38;;;;;;;2.83;2.50;;;22.10;99.90;;;;;;5024610;28;20557;-77
2022/07/10 07:38:05;;;;;;;5.40;4.90;;;21.60;99.90;;;;;;5022621;28;20219;-77
2022/07/10 07:40:32;;;;;;;4.43;3.13;;;21.40;99.90;;;;;;5009935;28;20287;-77
2022/07/10 07:42:59;;;;;;;6.53;2.80;;;21.00;99.90;;;;;;5011431;28;20782;-77
2022/07/10 07:45:27;;;;;;;3.50;2.30;;;20.90;99.90;;;;;;5028029;28;20562;-77
2022/07/10 07:47:55;;;;;;;2.77;2.57;;;20.70;99.90;;;;;;5008603;28;20215;-77
2022/07/10 07:50:25;;;;;;;6.00;5.50;;;20.60;99.90;;;;;;5028961;28;20227;-77
2022/07/10 07:52:52;;;;;;;2.97;2.10;;;20.50;99.90;;;;;;5008214;28;20244;-77
2022/07/10 07:55:21;;;;;;;4.27;2.43;;;20.30;99.90;;;;;;5028077;28;20199;-76
2022/07/10 07:57:51;;;;;;;3.00;2.60;;;20.40;99.90;;;;;;5033703;28;20196;-77
2022/07/10 08:00:18;;;;;;;2.83;2.40;;;20.70;99.90;;;;;;5023582;28;20718;-77
2022/07/10 08:02:45;;;;;;;3.03;2.43;;;21.80;99.90;;;;;;5024126;28;20328;-77
2022/07/10 08:05:12;;;;;;;4.53;2.43;;;22.50;99.90;;;;;;5028323;28;20196;-77
2022/07/10 08:07:42;;;;;;;7.67;5.30;;;22.60;99.90;;;;;;5027803;28;20218;-77
2022/07/10 08:10:12;;;;;;;5.17;4.73;;;22.20;99.90;;;;;;5025038;28;20193;-77
2022/07/10 08:12:40;;;;;;;4.60;4.20;;;21.80;99.90;;;;;;5027998;28;20894;-77
2022/07/10 08:15:08;;;;;;;4.37;2.57;;;22.20;99.90;;;;;;5031275;28;20198;-77
2022/07/10 08:17:35;;;;;;;6.83;4.67;;;22.30;99.90;;;;;;5031340;28;20228;-77
2022/07/10 08:20:02;;;;;;;3.80;3.20;;;22.70;99.90;;;;;;5019620;28;20267;-77
2022/07/10 08:22:29;;;;;;;4.73;4.37;;;23.30;99.90;;;;;;5023533;28;20251;-76
2022/07/10 08:24:57;;;;;;;5.70;5.30;;;23.90;99.90;;;;;;5023645;28;20270;-77
2022/07/10 08:27:24;;;;;;;4.93;2.47;;;24.50;99.90;;;;;;5026137;28;20680;-78
2022/07/10 08:29:51;;;;;;;5.10;4.20;;;25.30;99.90;;;;;;5028648;28;20196;-77
2022/07/10 08:32:18;;;;;;;5.67;5.10;;;25.50;99.90;;;;;;5023556;28;20242;-77
2022/07/10 08:34:45;;;;;;;5.17;4.77;;;25.10;99.90;;;;;;5005965;28;20244;-77
2022/07/10 08:37:12;;;;;;;4.53;4.23;;;24.20;99.90;;;;;;5023635;28;20222;-78
2022/07/10 08:39:39;;;;;;;2.77;2.07;;;24.00;99.90;;;;;;5026451;28;20298;-77
2022/07/10 08:42:08;;;;;;;5.73;5.20;;;23.70;99.90;;;;;;5014436;28;20204;-76
2022/07/10 08:44:35;;;;;;;5.63;5.03;;;23.10;99.90;;;;;;5025560;28;20219;-77
2022/07/10 08:47:03;;;;;;;5.70;5.20;;;22.60;99.90;;;;;;5024988;28;20237;-77
2022/07/10 08:49:31;;;;;;;5.37;5.03;;;22.40;99.90;;;;;;5029679;28;20675;-77
2022/07/10 08:51:59;;;;;;;5.90;5.30;;;22.70;99.90;;;;;;5022127;28;20215;-77
2022/07/10 08:54:28;;;;;;;5.23;4.80;;;23.60;99.90;;;;;;5021642;28;20303;-76
2022/07/10 08:56:57;;;;;;;5.47;4.77;;;23.40;99.90;;;;;;5021949;28;20211;-77
2022/07/10 08:59:26;;;;;;;5.23;4.83;;;23.00;99.90;;;;;;5025280;28;20195;-77
2022/07/10 09:01:54;;;;;;;5.30;4.90;;;22.70;99.90;;;;;;5030451;28;20195;-77
2022/07/10 09:04:22;;;;;;;5.57;5.10;;;22.50;99.90;;;;;;5025099;28;20295;-77
2022/07/10 09:06:49;;;;;;;5.90;5.17;;;23.00;99.90;;;;;;5007444;28;20219;-77
2022/07/10 09:09:16;;;;;;;5.60;5.13;;;23.60;99.90;;;;;;5015523;28;20211;-77
2022/07/10 09:11:43;;;;;;;4.57;4.27;;;23.50;99.90;;;;;;5023303;28;20730;-77
2022/07/10 09:14:11;;;;;;;5.30;4.90;;;23.20;99.90;;;;;;5038526;28;20211;-77
2022/07/10 09:16:43;;;;;;;5.73;5.13;;;23.50;99.90;;;;;;5029513;28;20605;-77
2022/07/10 09:19:18;;;;;;;5.60;5.10;;;23.30;99.90;;;;;;5018114;28;20211;-77
2022/07/10 09:21:45;;;;;;;7.07;5.57;;;23.00;99.90;;;;;;5014097;28;20676;-78
2022/07/10 09:24:13;;;;;;;4.23;3.87;;;22.40;99.90;;;;;;5035663;28;20226;-83
2022/07/10 09:26:42;;;;;;;5.97;5.43;;;22.10;99.90;;;;;;5013097;28;20203;-81
2022/07/10 09:29:10;;;;;;;5.67;5.00;;;22.30;99.90;;;;;;5026332;28;20196;-82
2022/07/10 09:31:55;;;;;;;5.13;4.07;;;22.50;99.90;;;;;;5010643;28;20203;-82
2022/07/10 09:34:40;;;;;;;3.67;3.30;;;22.60;99.90;;;;;;5040028;28;20216;-79
2022/07/10 09:37:27;;;;;;;6.00;4.00;;;22.20;99.90;;;;;;5032750;28;20216;-81
2022/07/10 09:39:55;;;;;;;4.83;4.47;;;22.30;99.90;;;;;;5037077;28;20196;-81
2022/07/10 09:42:26;;;;;;;5.20;4.70;;;22.70;99.90;;;;;;5045320;28;20587;-79
2022/07/10 09:44:53;;;;;;;5.10;4.70;;;22.90;99.90;;;;;;5031461;28;20244;-80
2022/07/10 09:47:24;;;;;;;5.50;4.90;;;23.40;99.90;;;;;;5034549;28;20192;-78
2022/07/10 09:49:51;;;;;;;4.53;4.13;;;23.80;99.90;;;;;;5051761;28;20189;-79
2022/07/10 09:52:19;;;;;;;4.43;4.13;;;24.00;99.90;;;;;;5056881;28;20217;-80
2022/07/10 09:54:47;;;;;;;4.63;4.23;;;24.50;99.50;;;;;;5053118;28;20208;-80
2022/07/10 09:57:17;;;;;;;4.93;4.53;;;24.80;99.50;;;;;;5045234;28;20251;-81
2022/07/10 09:59:45;;;;;;;5.50;5.10;;;25.10;98.70;;;;;;5038415;28;20246;-81
2022/07/10 10:02:13;;;;;;;2.80;1.80;;;25.40;99.40;;;;;;5035099;28;20692;-81
2022/07/10 10:04:43;;;;;;;2.67;2.10;;;25.90;99.10;;;;;;5046129;28;20222;-81
2022/07/10 10:07:14;;;;;;;4.00;2.13;;;26.20;98.40;;;;;;5033395;28;20196;-81
2022/07/10 10:09:47;;;;;;;5.23;2.47;;;26.10;97.70;;;;;;5042469;28;20207;-81
2022/07/10 10:12:17;;;;;;;4.17;2.70;;;25.80;96.50;;;;;;5039803;28;20211;-80
2022/07/10 10:14:45;;;;;;;3.77;2.67;;;25.10;96.60;;;;;;5036953;28;20247;-82
2022/07/10 10:17:13;;;;;;;3.73;3.20;;;24.20;97.90;;;;;;5044608;28;20239;-79
2022/07/10 10:22:26;;;;;;;4.53;2.07;;;24.00;97.50;;;;;;5036926;28;20199;-80
2022/07/10 10:24:54;;;;;;;4.20;3.77;;;23.80;98.50;;;;;;5030849;28;20719;-80
2022/07/10 10:27:22;;;;;;;5.17;4.30;;;23.40;98.70;;;;;;5028148;28;20266;-80
2022/07/10 10:29:49;;;;;;;3.53;3.23;;;22.80;98.20;;;;;;5028116;28;20250;-80
2022/07/10 10:32:16;;;;;;;4.30;2.03;;;23.00;99.90;;;;;;5018939;28;20805;-79
2022/07/10 10:34:55;;;;;;;2.90;2.10;;;23.60;99.40;;;;;;5029319;28;20684;-80
2022/07/10 10:37:37;;;;;;;4.20;1.83;;;24.10;97.80;;;;;;5016671;28;20696;-79
2022/07/10 10:40:05;;;;;;;1.97;1.67;;;24.30;96.00;;;;;;5044685;28;20273;-79
2022/07/10 10:42:37;;;;;;;2.87;2.10;;;23.90;96.40;;;;;;5021291;28;20208;-80
2022/07/10 10:45:27;;;;;;;2.07;1.77;;;24.00;96.80;;;;;;5024027;28;20624;-80
2022/07/10 10:48:08;;;;;;;1.70;1.60;;;23.80;95.70;;;;;;5044234;28;20226;-80
2022/07/10 10:50:42;;;;;;;2.37;1.90;;;23.90;97.60;;;;;;5030169;28;20225;-80
2022/07/10 10:53:16;;;;;;;3.13;2.93;;;23.30;96.80;;;;;;5055532;28;20290;-79
2022/07/10 10:56:16;;;;;;;3.30;2.90;;;23.10;97.70;;;;;;5036322;28;20233;-79
2022/07/10 10:58:45;;;;;;;2.53;2.33;;;23.40;96.40;;;;;;5034298;28;20718;-79
2022/07/10 11:01:25;;;;;;;2.87;1.60;;;23.60;96.90;;;;;;5036875;28;20256;-80
2022/07/10 11:04:19;;;;;;;2.73;1.80;;;23.90;97.40;;;;;;5034867;28;20234;-79
2022/07/10 11:06:49;;;;;;;5.50;5.00;;;24.30;97.20;;;;;;4990205;28;20208;-81
2022/07/10 11:09:24;;;;;;;5.00;4.60;;;24.40;97.10;;;;;;5032693;28;20203;-79
2022/07/10 11:12:05;;;;;;;5.40;5.07;;;24.30;96.80;;;;;;5059765;28;20222;-79
2022/07/10 11:14:34;;;;;;;6.43;5.07;;;24.00;96.40;;;;;;5057456;28;20238;-80
2022/07/10 11:17:01;;;;;;;6.13;5.17;;;23.60;96.60;;;;;;5055157;28;20229;-82
2022/07/10 11:19:30;;;;;;;3.73;2.07;;;23.20;96.00;;;;;;5058836;28;20602;-79
2022/07/10 11:22:38;;;;;;;3.97;2.30;;;22.90;96.30;;;;;;5060224;28;20214;-81
2022/07/10 11:25:20;;;;;;;4.17;3.87;;;22.70;97.50;;;;;;5022547;28;20245;-80
2022/07/10 11:28:07;;;;;;;2.77;1.80;;;23.10;97.60;;;;;;5057825;28;20442;-79
2022/07/10 11:30:47;;;;;;;3.60;1.97;;;23.20;96.30;;;;;;5043295;28;20643;-79
2022/07/10 11:33:15;;;;;;;5.03;4.70;;;23.00;97.70;;;;;;5034724;28;20207;-79
2022/07/10 11:35:46;;;;;;;2.73;2.00;;;23.10;96.80;;;;;;5038958;28;20295;-79
2022/07/10 11:38:20;;;;;;;2.33;1.80;;;23.30;97.20;;;;;;5042346;28;20256;-80
2022/07/10 11:40:46;;;;;;;3.53;1.77;;;23.40;97.10;;;;;;5039896;28;20607;-79
2022/07/10 11:43:16;;;;;;;1.80;1.70;;;23.10;97.30;;;;;;5055948;28;20215;-80
2022/07/10 11:45:44;;;;;;;3.60;1.87;;;23.10;97.20;;;;;;5055200;28;20573;-80
2022/07/10 11:48:18;;;;;;;4.20;2.00;;;22.80;97.70;;;;;;5035958;28;20684;-79
2022/07/10 11:50:46;;;;;;;3.67;2.23;;;22.80;98.00;;;;;;5031659;28;20630;-80
2022/07/10 11:53:14;;;;;;;3.97;3.67;;;22.60;98.70;;;;;;5030919;28;20267;-78
2022/07/10 11:55:41;;;;;;;3.13;2.30;;;22.90;99.10;;;;;;5036071;28;20203;-79
2022/07/10 11:58:18;;;;;;;2.30;2.10;;;22.80;97.20;;;;;;5026242;28;20218;-79
2022/07/10 12:00:57;;;;;;;5.60;4.60;;;23.00;98.10;;;;;;5026355;28;20200;-79
2022/07/10 12:03:24;;;;;;;3.40;1.80;;;23.20;98.10;;;;;;5027419;28;20713;-80
2022/07/10 12:05:52;;;;;;;3.57;1.90;;;23.40;98.90;;;;;;5033394;28;20225;-81
2022/07/10 12:08:20;;;;;;;4.73;3.70;;;23.40;97.10;;;;;;5022262;28;20200;-80
2022/07/10 12:10:47;;;;;;;3.27;2.73;;;23.10;97.50;;;;;;5035808;28;20235;-81
2022/07/10 12:13:15;;;;;;;2.03;1.77;;;22.60;96.80;;;;;;5034255;28;20221;-79
2022/07/10 12:15:43;;;;;;;2.97;1.80;;;22.60;96.40;;;;;;5035697;28;20246;-79
2022/07/10 12:18:18;;;;;;;1.80;1.70;;;22.50;97.90;;;;;;5032348;28;20220;-79
2022/07/10 12:20:47;;;;;;;6.00;4.57;;;22.50;97.90;;;;;;5034426;28;20203;-81
2022/07/10 12:23:16;;;;;;;2.23;1.77;;;22.60;97.10;;;;;;5031861;28;20740;-81
2022/07/10 12:25:45;;;;;;;5.00;4.60;;;22.40;97.70;;;;;;5034166;28;20627;-80
2022/07/10 12:28:13;;;;;;;4.60;4.30;;;22.40;97.50;;;;;;5017770;28;20198;-80
2022/07/10 12:30:41;;;;;;;4.80;4.40;;;22.50;96.90;;;;;;5033754;28;20579;-80
2022/07/10 12:33:16;;;;;;;2.07;1.87;;;22.30;96.50;;;;;;5037444;28;20243;-82
2022/07/10 12:35:48;;;;;;;2.97;1.90;;;22.30;96.10;;;;;;5037348;28;20253;-80
2022/07/10 12:38:17;;;;;;;3.57;2.00;;;22.60;97.00;;;;;;5032041;28;20224;-79
2022/07/10 12:40:45;;;;;;;2.83;1.70;;;22.50;97.80;;;;;;5036613;28;20191;-79
2022/07/10 12:43:12;;;;;;;4.67;4.33;;;22.30;98.80;;;;;;5030906;28;20220;-79
2022/07/10 12:45:39;;;;;;;4.83;4.43;;;22.60;98.40;;;;;;5035120;28;20227;-79
2022/07/10 12:48:06;;;;;;;2.67;1.77;;;22.50;98.40;;;;;;5039553;28;20202;-80
2022/07/10 12:50:34;;;;;;;2.63;1.90;;;22.40;97.70;;;;;;5033729;28;20196;-80
2022/07/10 12:53:13;;;;;;;2.77;1.80;;;22.40;96.10;;;;;;5016332;28;20219;-79
2022/07/10 12:55:41;;;;;;;2.97;2.13;;;22.30;97.40;;;;;;5028062;28;20260;-78
2022/07/10 12:58:11;;;;;;;5.23;4.70;;;22.20;96.80;;;;;;5037043;28;20753;-79
2022/07/10 13:00:46;;;;;;;5.37;4.80;;;22.10;97.50;;;;;;5026399;28;20645;-80
2022/07/10 13:03:19;;;;;;;4.80;4.50;;;21.90;98.40;;;;;;5008294;28;20218;-81